Whiteriver, Arizona
Current Conditions -  °F | °C
As of 6:35 AM on Sunday 23 Nov 2014 (Local Time) from KSOW Reporting Station
Clear Clear  
Wind Chill: 27°   Ceiling: Unl
Heat Index: 36°   Visibility: 10mi
Dew Point: 19°   Wind: 13mph
Humidity: 52%   Direction: 210°SSW
Pressure: 30.04"   Gusts: NA
Location:  33.84°N, 109.96°W
Report Text: KSOW 231335Z AUTO 21011KT 10SM CLR 02/M07 A3004 RMK AO2
Loading
Personal Weather Stations






























Interactive Weather Map New forecast layout! Learn more

10-Day Weather Forecast

Advertisements
Track Severe Weather on mobile